sensor_id;sensor_type;location;lat;lon;timestamp;P1;durP1;ratioP1;P2;durP2;ratioP2
71965;SDS011;59836;52.132;5.442;2023-11-19T00:02:23;5.83;;;3.07;;
71965;SDS011;59836;52.132;5.442;2023-11-19T00:04:57;9.75;;;3.22;;
71965;SDS011;59836;52.132;5.442;2023-11-19T00:07:24;6.00;;;3.08;;
71965;SDS011;59836;52.132;5.442;2023-11-19T00:10:00;9.80;;;3.55;;
71965;SDS011;59836;52.132;5.442;2023-11-19T00:12:37;8.27;;;3.17;;
71965;SDS011;59836;52.132;5.442;2023-11-19T00:15:06;10.33;;;3.10;;
71965;SDS011;59836;52.132;5.442;2023-11-19T00:17:38;6.80;;;2.38;;
71965;SDS011;59836;52.132;5.442;2023-11-19T00:20:12;6.68;;;3.20;;
71965;SDS011;59836;52.132;5.442;2023-11-19T00:22:38;9.75;;;3.10;;
71965;SDS011;59836;52.132;5.442;2023-11-19T00:25:14;8.57;;;3.15;;
71965;SDS011;59836;52.132;5.442;2023-11-19T00:27:41;9.93;;;2.70;;
71965;SDS011;59836;52.132;5.442;2023-11-19T00:30:10;7.90;;;2.83;;
71965;SDS011;59836;52.132;5.442;2023-11-19T00:32:37;7.40;;;2.53;;
71965;SDS011;59836;52.132;5.442;2023-11-19T00:35:06;8.57;;;2.30;;
71965;SDS011;59836;52.132;5.442;2023-11-19T00:37:33;8.05;;;2.30;;
71965;SDS011;59836;52.132;5.442;2023-11-19T00:40:00;9.07;;;2.70;;
71965;SDS011;59836;52.132;5.442;2023-11-19T00:42:26;8.02;;;2.20;;
71965;SDS011;59836;52.132;5.442;2023-11-19T00:44:53;11.73;;;2.60;;
71965;SDS011;59836;52.132;5.442;2023-11-19T00:47:19;10.05;;;2.72;;
71965;SDS011;59836;52.132;5.442;2023-11-19T00:49:47;8.88;;;2.28;;
71965;SDS011;59836;52.132;5.442;2023-11-19T00:52:17;7.10;;;1.93;;
71965;SDS011;59836;52.132;5.442;2023-11-19T00:54:44;8.80;;;2.10;;
71965;SDS011;59836;52.132;5.442;2023-11-19T00:57:11;12.02;;;2.13;;
71965;SDS011;59836;52.132;5.442;2023-11-19T00:59:37;15.68;;;2.75;;
71965;SDS011;59836;52.132;5.442;2023-11-19T01:02:04;12.80;;;2.40;;
71965;SDS011;59836;52.132;5.442;2023-11-19T01:04:35;8.53;;;1.93;;
71965;SDS011;59836;52.132;5.442;2023-11-19T01:07:03;10.55;;;2.40;;
71965;SDS011;59836;52.132;5.442;2023-11-19T01:09:30;11.82;;;2.67;;
71965;SDS011;59836;52.132;5.442;2023-11-19T01:12:01;10.00;;;1.63;;
71965;SDS011;59836;52.132;5.442;2023-11-19T01:14:29;9.45;;;2.80;;
71965;SDS011;59836;52.132;5.442;2023-11-19T01:16:57;13.40;;;2.03;;
71965;SDS011;59836;52.132;5.442;2023-11-19T01:19:24;12.07;;;2.35;;
71965;SDS011;59836;52.132;5.442;2023-11-19T01:21:50;10.45;;;2.03;;
71965;SDS011;59836;52.132;5.442;2023-11-19T01:24:17;12.85;;;2.20;;
71965;SDS011;59836;52.132;5.442;2023-11-19T01:26:44;13.38;;;3.13;;
71965;SDS011;59836;52.132;5.442;2023-11-19T01:29:12;15.87;;;2.60;;
71965;SDS011;59836;52.132;5.442;2023-11-19T01:31:42;9.48;;;2.33;;
71965;SDS011;59836;52.132;5.442;2023-11-19T01:34:09;11.25;;;3.03;;
71965;SDS011;59836;52.132;5.442;2023-11-19T01:36:37;11.27;;;2.30;;
71965;SDS011;59836;52.132;5.442;2023-11-19T01:39:05;14.27;;;3.58;;
71965;SDS011;59836;52.132;5.442;2023-11-19T01:41:35;15.23;;;2.33;;
71965;SDS011;59836;52.132;5.442;2023-11-19T01:44:03;12.50;;;1.90;;
71965;SDS011;59836;52.132;5.442;2023-11-19T01:46:30;21.33;;;2.88;;
71965;SDS011;59836;52.132;5.442;2023-11-19T01:48:59;17.02;;;2.85;;
71965;SDS011;59836;52.132;5.442;2023-11-19T01:51:26;14.85;;;2.47;;
71965;SDS011;59836;52.132;5.442;2023-11-19T01:53:53;12.13;;;2.70;;
71965;SDS011;59836;52.132;5.442;2023-11-19T01:56:21;17.90;;;3.25;;
71965;SDS011;59836;52.132;5.442;2023-11-19T01:58:49;23.10;;;2.85;;
71965;SDS011;59836;52.132;5.442;2023-11-19T02:01:16;17.15;;;3.08;;
71965;SDS011;59836;52.132;5.442;2023-11-19T02:03:42;13.50;;;2.35;;
71965;SDS011;59836;52.132;5.442;2023-11-19T02:06:09;12.77;;;2.63;;
71965;SDS011;59836;52.132;5.442;2023-11-19T02:08:36;18.63;;;2.42;;
71965;SDS011;59836;52.132;5.442;2023-11-19T02:11:05;19.67;;;2.85;;
71965;SDS011;59836;52.132;5.442;2023-11-19T02:13:33;17.27;;;3.05;;
71965;SDS011;59836;52.132;5.442;2023-11-19T02:16:02;14.73;;;2.97;;
71965;SDS011;59836;52.132;5.442;2023-11-19T02:18:30;15.97;;;2.57;;
71965;SDS011;59836;52.132;5.442;2023-11-19T02:20:57;21.83;;;2.80;;
71965;SDS011;59836;52.132;5.442;2023-11-19T02:23:26;18.42;;;2.58;;
71965;SDS011;59836;52.132;5.442;2023-11-19T02:26:10;20.77;;;2.85;;
71965;SDS011;59836;52.132;5.442;2023-11-19T02:28:42;14.20;;;2.78;;
71965;SDS011;59836;52.132;5.442;2023-11-19T02:31:10;13.33;;;2.00;;
71965;SDS011;59836;52.132;5.442;2023-11-19T02:33:38;14.50;;;2.75;;
71965;SDS011;59836;52.132;5.442;2023-11-19T02:36:05;20.98;;;2.33;;
71965;SDS011;59836;52.132;5.442;2023-11-19T02:38:37;14.45;;;1.95;;
71965;SDS011;59836;52.132;5.442;2023-11-19T02:43:36;21.63;;;2.90;;
71965;SDS011;59836;52.132;5.442;2023-11-19T02:46:18;22.90;;;2.65;;
71965;SDS011;59836;52.132;5.442;2023-11-19T02:48:58;21.35;;;2.55;;
71965;SDS011;59836;52.132;5.442;2023-11-19T02:51:25;18.42;;;2.38;;
71965;SDS011;59836;52.132;5.442;2023-11-19T02:53:56;18.65;;;3.17;;
71965;SDS011;59836;52.132;5.442;2023-11-19T02:56:22;14.33;;;2.87;;
71965;SDS011;59836;52.132;5.442;2023-11-19T02:58:52;16.75;;;2.38;;
71965;SDS011;59836;52.132;5.442;2023-11-19T03:07:19;21.33;;;2.53;;
71965;SDS011;59836;52.132;5.442;2023-11-19T03:09:45;21.37;;;2.70;;
71965;SDS011;59836;52.132;5.442;2023-11-19T03:12:12;19.35;;;2.40;;
71965;SDS011;59836;52.132;5.442;2023-11-19T03:14:38;18.52;;;2.92;;
71965;SDS011;59836;52.132;5.442;2023-11-19T03:17:04;20.35;;;2.83;;
71965;SDS011;59836;52.132;5.442;2023-11-19T03:19:41;21.27;;;2.65;;
71965;SDS011;59836;52.132;5.442;2023-11-19T03:22:08;16.23;;;2.73;;
71965;SDS011;59836;52.132;5.442;2023-11-19T03:24:37;25.00;;;2.85;;
71965;SDS011;59836;52.132;5.442;2023-11-19T03:27:14;17.15;;;2.90;;
71965;SDS011;59836;52.132;5.442;2023-11-19T03:29:44;14.57;;;2.72;;
71965;SDS011;59836;52.132;5.442;2023-11-19T03:32:27;19.70;;;3.33;;
71965;SDS011;59836;52.132;5.442;2023-11-19T03:34:54;21.70;;;2.80;;
71965;SDS011;59836;52.132;5.442;2023-11-19T03:37:21;20.70;;;2.42;;
71965;SDS011;59836;52.132;5.442;2023-11-19T03:39:48;21.52;;;3.33;;
71965;SDS011;59836;52.132;5.442;2023-11-19T03:42:18;24.02;;;2.88;;
71965;SDS011;59836;52.132;5.442;2023-11-19T03:45:01;15.77;;;2.65;;
71965;SDS011;59836;52.132;5.442;2023-11-19T03:47:36;20.77;;;3.60;;
71965;SDS011;59836;52.132;5.442;2023-11-19T03:50:02;26.95;;;3.05;;
71965;SDS011;59836;52.132;5.442;2023-11-19T03:52:30;22.63;;;3.38;;
71965;SDS011;59836;52.132;5.442;2023-11-19T03:55:09;22.13;;;2.72;;
71965;SDS011;59836;52.132;5.442;2023-11-19T03:57:36;16.63;;;2.35;;
71965;SDS011;59836;52.132;5.442;2023-11-19T04:00:02;20.13;;;3.20;;
71965;SDS011;59836;52.132;5.442;2023-11-19T04:02:40;19.45;;;3.00;;
71965;SDS011;59836;52.132;5.442;2023-11-19T04:05:07;23.13;;;4.35;;
71965;SDS011;59836;52.132;5.442;2023-11-19T04:07:35;14.75;;;2.28;;
71965;SDS011;59836;52.132;5.442;2023-11-19T04:10:02;20.77;;;3.08;;
71965;SDS011;59836;52.132;5.442;2023-11-19T04:12:29;19.00;;;2.67;;
71965;SDS011;59836;52.132;5.442;2023-11-19T04:14:56;20.77;;;3.00;;
71965;SDS011;59836;52.132;5.442;2023-11-19T04:17:25;20.08;;;4.03;;
71965;SDS011;59836;52.132;5.442;2023-11-19T04:19:52;19.58;;;3.05;;
71965;SDS011;59836;52.132;5.442;2023-11-19T04:22:18;22.52;;;3.85;;
71965;SDS011;59836;52.132;5.442;2023-11-19T04:24:45;25.47;;;2.37;;
71965;SDS011;59836;52.132;5.442;2023-11-19T04:27:12;20.13;;;2.92;;
71965;SDS011;59836;52.132;5.442;2023-11-19T04:29:38;18.92;;;2.38;;
71965;SDS011;59836;52.132;5.442;2023-11-19T04:32:06;22.27;;;3.78;;
71965;SDS011;59836;52.132;5.442;2023-11-19T04:34:34;20.25;;;3.15;;
71965;SDS011;59836;52.132;5.442;2023-11-19T04:37:00;15.80;;;2.20;;
71965;SDS011;59836;52.132;5.442;2023-11-19T04:39:34;22.88;;;3.03;;
71965;SDS011;59836;52.132;5.442;2023-11-19T04:42:01;17.75;;;2.40;;
71965;SDS011;59836;52.132;5.442;2023-11-19T04:44:29;22.13;;;2.50;;
71965;SDS011;59836;52.132;5.442;2023-11-19T04:46:56;23.38;;;2.97;;
71965;SDS011;59836;52.132;5.442;2023-11-19T04:49:24;17.43;;;2.50;;
71965;SDS011;59836;52.132;5.442;2023-11-19T04:51:53;19.50;;;2.67;;
71965;SDS011;59836;52.132;5.442;2023-11-19T04:54:20;21.45;;;2.28;;
71965;SDS011;59836;52.132;5.442;2023-11-19T04:56:46;20.58;;;2.47;;
71965;SDS011;59836;52.132;5.442;2023-11-19T04:59:13;22.58;;;3.13;;
71965;SDS011;59836;52.132;5.442;2023-11-19T05:01:40;25.77;;;2.90;;
71965;SDS011;59836;52.132;5.442;2023-11-19T05:04:07;20.05;;;3.00;;
71965;SDS011;59836;52.132;5.442;2023-11-19T05:06:34;17.17;;;2.85;;
71965;SDS011;59836;52.132;5.442;2023-11-19T05:09:01;20.95;;;3.60;;
71965;SDS011;59836;52.132;5.442;2023-11-19T05:14:18;16.00;;;3.03;;
71965;SDS011;59836;52.132;5.442;2023-11-19T05:16:48;24.98;;;3.15;;
71965;SDS011;59836;52.132;5.442;2023-11-19T05:19:15;23.65;;;2.55;;
71965;SDS011;59836;52.132;5.442;2023-11-19T05:21:42;20.40;;;2.80;;
71965;SDS011;59836;52.132;5.442;2023-11-19T05:24:10;24.95;;;3.13;;
71965;SDS011;59836;52.132;5.442;2023-11-19T05:26:38;20.27;;;2.57;;
71965;SDS011;59836;52.132;5.442;2023-11-19T05:29:04;15.25;;;2.70;;
71965;SDS011;59836;52.132;5.442;2023-11-19T05:31:31;22.65;;;2.90;;
71965;SDS011;59836;52.132;5.442;2023-11-19T05:34:02;24.70;;;3.55;;
71965;SDS011;59836;52.132;5.442;2023-11-19T05:38:59;22.40;;;2.80;;
71965;SDS011;59836;52.132;5.442;2023-11-19T05:41:26;16.05;;;2.58;;
71965;SDS011;59836;52.132;5.442;2023-11-19T05:43:53;22.80;;;2.53;;
71965;SDS011;59836;52.132;5.442;2023-11-19T05:46:19;21.65;;;2.65;;
71965;SDS011;59836;52.132;5.442;2023-11-19T05:48:46;19.25;;;3.63;;
71965;SDS011;59836;52.132;5.442;2023-11-19T05:51:14;15.67;;;2.60;;
71965;SDS011;59836;52.132;5.442;2023-11-19T05:53:43;16.15;;;3.13;;
71965;SDS011;59836;52.132;5.442;2023-11-19T05:56:12;15.07;;;2.58;;
71965;SDS011;59836;52.132;5.442;2023-11-19T05:58:39;23.80;;;2.95;;
71965;SDS011;59836;52.132;5.442;2023-11-19T06:01:06;24.60;;;3.53;;
71965;SDS011;59836;52.132;5.442;2023-11-19T06:03:34;18.13;;;2.70;;
71965;SDS011;59836;52.132;5.442;2023-11-19T06:06:01;19.13;;;3.08;;
71965;SDS011;59836;52.132;5.442;2023-11-19T06:08:28;21.23;;;2.97;;
71965;SDS011;59836;52.132;5.442;2023-11-19T06:10:55;22.73;;;3.10;;
71965;SDS011;59836;52.132;5.442;2023-11-19T06:13:22;24.85;;;3.53;;
71965;SDS011;59836;52.132;5.442;2023-11-19T06:15:50;21.30;;;2.80;;
71965;SDS011;59836;52.132;5.442;2023-11-19T06:18:17;18.40;;;2.58;;
71965;SDS011;59836;52.132;5.442;2023-11-19T06:20:46;18.90;;;3.58;;
71965;SDS011;59836;52.132;5.442;2023-11-19T06:23:13;20.63;;;2.40;;
71965;SDS011;59836;52.132;5.442;2023-11-19T06:25:39;21.73;;;2.90;;
71965;SDS011;59836;52.132;5.442;2023-11-19T06:28:06;20.97;;;2.77;;
71965;SDS011;59836;52.132;5.442;2023-11-19T06:30:32;18.08;;;2.58;;
71965;SDS011;59836;52.132;5.442;2023-11-19T06:32:59;21.60;;;2.72;;
71965;SDS011;59836;52.132;5.442;2023-11-19T06:35:26;25.38;;;2.95;;
71965;SDS011;59836;52.132;5.442;2023-11-19T06:37:53;23.08;;;2.65;;
71965;SDS011;59836;52.132;5.442;2023-11-19T06:40:21;22.37;;;2.90;;
71965;SDS011;59836;52.132;5.442;2023-11-19T06:42:47;15.88;;;2.47;;
71965;SDS011;59836;52.132;5.442;2023-11-19T06:45:14;23.10;;;2.97;;
71965;SDS011;59836;52.132;5.442;2023-11-19T06:47:40;24.08;;;3.22;;
71965;SDS011;59836;52.132;5.442;2023-11-19T06:50:07;25.92;;;3.00;;
71965;SDS011;59836;52.132;5.442;2023-11-19T06:52:34;23.37;;;3.03;;
71965;SDS011;59836;52.132;5.442;2023-11-19T06:55:03;23.58;;;2.97;;
71965;SDS011;59836;52.132;5.442;2023-11-19T06:57:34;29.77;;;2.90;;
71965;SDS011;59836;52.132;5.442;2023-11-19T07:00:01;21.33;;;3.08;;
71965;SDS011;59836;52.132;5.442;2023-11-19T07:02:27;22.65;;;3.05;;
71965;SDS011;59836;52.132;5.442;2023-11-19T07:04:54;18.10;;;2.70;;
71965;SDS011;59836;52.132;5.442;2023-11-19T07:07:21;18.50;;;3.47;;
71965;SDS011;59836;52.132;5.442;2023-11-19T07:09:47;21.40;;;3.58;;
71965;SDS011;59836;52.132;5.442;2023-11-19T07:12:14;22.02;;;4.03;;
71965;SDS011;59836;52.132;5.442;2023-11-19T07:14:40;19.10;;;2.30;;
71965;SDS011;59836;52.132;5.442;2023-11-19T07:17:08;26.90;;;3.67;;
71965;SDS011;59836;52.132;5.442;2023-11-19T07:19:37;16.05;;;2.13;;
71965;SDS011;59836;52.132;5.442;2023-11-19T07:22:06;27.95;;;4.75;;
71965;SDS011;59836;52.132;5.442;2023-11-19T07:24:33;19.30;;;3.40;;
71965;SDS011;59836;52.132;5.442;2023-11-19T07:26:59;22.00;;;2.78;;
71965;SDS011;59836;52.132;5.442;2023-11-19T07:29:34;16.27;;;2.63;;
71965;SDS011;59836;52.132;5.442;2023-11-19T07:32:04;21.10;;;2.72;;
71965;SDS011;59836;52.132;5.442;2023-11-19T07:34:32;25.55;;;3.28;;
71965;SDS011;59836;52.132;5.442;2023-11-19T07:37:11;17.63;;;2.72;;
71965;SDS011;59836;52.132;5.442;2023-11-19T07:39:38;23.02;;;3.13;;
71965;SDS011;59836;52.132;5.442;2023-11-19T07:42:07;24.03;;;3.23;;
71965;SDS011;59836;52.132;5.442;2023-11-19T07:44:36;22.30;;;2.72;;
71965;SDS011;59836;52.132;5.442;2023-11-19T07:47:06;17.85;;;2.35;;
71965;SDS011;59836;52.132;5.442;2023-11-19T07:49:32;24.42;;;3.03;;
71965;SDS011;59836;52.132;5.442;2023-11-19T07:51:59;17.45;;;2.40;;
71965;SDS011;59836;52.132;5.442;2023-11-19T07:54:26;22.07;;;3.23;;
71965;SDS011;59836;52.132;5.442;2023-11-19T07:56:52;19.88;;;2.63;;
71965;SDS011;59836;52.132;5.442;2023-11-19T07:59:19;14.80;;;1.95;;
71965;SDS011;59836;52.132;5.442;2023-11-19T08:01:46;23.13;;;2.40;;
71965;SDS011;59836;52.132;5.442;2023-11-19T08:04:12;24.35;;;2.83;;
71965;SDS011;59836;52.132;5.442;2023-11-19T08:06:39;21.67;;;2.00;;
71965;SDS011;59836;52.132;5.442;2023-11-19T08:09:06;21.58;;;2.50;;
71965;SDS011;59836;52.132;5.442;2023-11-19T08:11:33;21.95;;;2.45;;
71965;SDS011;59836;52.132;5.442;2023-11-19T08:14:00;19.65;;;2.88;;
71965;SDS011;59836;52.132;5.442;2023-11-19T08:16:26;20.25;;;3.03;;
71965;SDS011;59836;52.132;5.442;2023-11-19T08:18:53;27.67;;;2.70;;
71965;SDS011;59836;52.132;5.442;2023-11-19T08:21:20;22.42;;;3.22;;
71965;SDS011;59836;52.132;5.442;2023-11-19T08:23:48;21.35;;;2.90;;
71965;SDS011;59836;52.132;5.442;2023-11-19T08:26:15;18.20;;;2.42;;
71965;SDS011;59836;52.132;5.442;2023-11-19T08:28:46;24.42;;;3.42;;
71965;SDS011;59836;52.132;5.442;2023-11-19T08:31:13;25.47;;;4.17;;
71965;SDS011;59836;52.132;5.442;2023-11-19T08:33:40;20.65;;;2.45;;
71965;SDS011;59836;52.132;5.442;2023-11-19T08:36:08;19.05;;;2.38;;
71965;SDS011;59836;52.132;5.442;2023-11-19T08:38:49;28.85;;;3.30;;
71965;SDS011;59836;52.132;5.442;2023-11-19T08:43:54;19.40;;;2.73;;
71965;SDS011;59836;52.132;5.442;2023-11-19T08:46:30;21.92;;;2.72;;
71965;SDS011;59836;52.132;5.442;2023-11-19T08:51:45;20.85;;;3.90;;
71965;SDS011;59836;52.132;5.442;2023-11-19T08:54:12;21.48;;;2.10;;
71965;SDS011;59836;52.132;5.442;2023-11-19T08:56:39;18.40;;;2.27;;
71965;SDS011;59836;52.132;5.442;2023-11-19T08:59:05;18.75;;;2.40;;
71965;SDS011;59836;52.132;5.442;2023-11-19T09:01:32;18.95;;;2.47;;
71965;SDS011;59836;52.132;5.442;2023-11-19T09:03:59;18.90;;;2.25;;
71965;SDS011;59836;52.132;5.442;2023-11-19T09:06:32;22.23;;;3.53;;
71965;SDS011;59836;52.132;5.442;2023-11-19T09:09:00;19.83;;;3.47;;
71965;SDS011;59836;52.132;5.442;2023-11-19T09:11:29;17.20;;;2.60;;
71965;SDS011;59836;52.132;5.442;2023-11-19T09:13:56;20.88;;;2.83;;
71965;SDS011;59836;52.132;5.442;2023-11-19T09:16:27;19.90;;;2.83;;
71965;SDS011;59836;52.132;5.442;2023-11-19T09:18:54;20.52;;;2.75;;
71965;SDS011;59836;52.132;5.442;2023-11-19T09:21:21;21.77;;;2.23;;
71965;SDS011;59836;52.132;5.442;2023-11-19T09:23:47;22.00;;;2.85;;
71965;SDS011;59836;52.132;5.442;2023-11-19T09:26:15;14.77;;;3.28;;
71965;SDS011;59836;52.132;5.442;2023-11-19T09:28:41;23.10;;;2.20;;
71965;SDS011;59836;52.132;5.442;2023-11-19T09:31:17;20.30;;;2.75;;
71965;SDS011;59836;52.132;5.442;2023-11-19T09:33:44;14.57;;;2.53;;
71965;SDS011;59836;52.132;5.442;2023-11-19T09:36:12;19.33;;;2.47;;
71965;SDS011;59836;52.132;5.442;2023-11-19T09:38:43;21.13;;;2.47;;
71965;SDS011;59836;52.132;5.442;2023-11-19T09:41:10;18.45;;;2.83;;
71965;SDS011;59836;52.132;5.442;2023-11-19T09:43:39;17.67;;;2.50;;
71965;SDS011;59836;52.132;5.442;2023-11-19T09:46:10;20.80;;;3.30;;
71965;SDS011;59836;52.132;5.442;2023-11-19T09:48:40;18.67;;;2.42;;
71965;SDS011;59836;52.132;5.442;2023-11-19T09:51:06;16.60;;;2.42;;
71965;SDS011;59836;52.132;5.442;2023-11-19T09:53:35;23.15;;;2.50;;
71965;SDS011;59836;52.132;5.442;2023-11-19T09:56:03;19.00;;;2.67;;
71965;SDS011;59836;52.132;5.442;2023-11-19T09:58:31;18.43;;;2.87;;
71965;SDS011;59836;52.132;5.442;2023-11-19T10:00:58;16.08;;;2.40;;
71965;SDS011;59836;52.132;5.442;2023-11-19T10:03:46;15.93;;;2.05;;
71965;SDS011;59836;52.132;5.442;2023-11-19T10:06:14;20.17;;;2.53;;
71965;SDS011;59836;52.132;5.442;2023-11-19T10:08:41;21.27;;;3.13;;
71965;SDS011;59836;52.132;5.442;2023-11-19T10:11:09;19.50;;;2.80;;
71965;SDS011;59836;52.132;5.442;2023-11-19T10:13:40;20.25;;;2.38;;
71965;SDS011;59836;52.132;5.442;2023-11-19T10:16:09;20.27;;;2.88;;
71965;SDS011;59836;52.132;5.442;2023-11-19T10:18:38;20.80;;;2.00;;
71965;SDS011;59836;52.132;5.442;2023-11-19T10:21:11;21.08;;;3.20;;
71965;SDS011;59836;52.132;5.442;2023-11-19T10:23:49;15.60;;;2.43;;
71965;SDS011;59836;52.132;5.442;2023-11-19T10:26:18;19.48;;;2.70;;
71965;SDS011;59836;52.132;5.442;2023-11-19T10:28:49;17.95;;;3.40;;
71965;SDS011;59836;52.132;5.442;2023-11-19T10:31:16;25.25;;;3.70;;
71965;SDS011;59836;52.132;5.442;2023-11-19T10:33:44;19.02;;;2.22;;
71965;SDS011;59836;52.132;5.442;2023-11-19T10:36:12;16.13;;;2.20;;
71965;SDS011;59836;52.132;5.442;2023-11-19T10:38:39;19.15;;;2.78;;
71965;SDS011;59836;52.132;5.442;2023-11-19T10:41:06;18.88;;;3.08;;
71965;SDS011;59836;52.132;5.442;2023-11-19T10:43:42;18.55;;;2.88;;
71965;SDS011;59836;52.132;5.442;2023-11-19T10:46:13;15.90;;;2.90;;
71965;SDS011;59836;52.132;5.442;2023-11-19T10:48:40;20.17;;;2.90;;
71965;SDS011;59836;52.132;5.442;2023-11-19T10:51:07;17.00;;;2.17;;
71965;SDS011;59836;52.132;5.442;2023-11-19T10:53:35;23.30;;;3.10;;
71965;SDS011;59836;52.132;5.442;2023-11-19T10:56:06;15.52;;;2.30;;
71965;SDS011;59836;52.132;5.442;2023-11-19T10:58:37;16.48;;;2.33;;
71965;SDS011;59836;52.132;5.442;2023-11-19T11:01:13;20.43;;;3.07;;
71965;SDS011;59836;52.132;5.442;2023-11-19T11:03:42;22.95;;;2.72;;
71965;SDS011;59836;52.132;5.442;2023-11-19T11:06:10;21.98;;;2.58;;
71965;SDS011;59836;52.132;5.442;2023-11-19T11:08:37;14.45;;;2.20;;
71965;SDS011;59836;52.132;5.442;2023-11-19T11:11:05;18.38;;;2.97;;
71965;SDS011;59836;52.132;5.442;2023-11-19T11:13:33;15.13;;;2.33;;
71965;SDS011;59836;52.132;5.442;2023-11-19T11:16:02;20.15;;;3.70;;
71965;SDS011;59836;52.132;5.442;2023-11-19T11:18:30;19.05;;;2.50;;
71965;SDS011;59836;52.132;5.442;2023-11-19T11:21:11;20.17;;;2.90;;
71965;SDS011;59836;52.132;5.442;2023-11-19T11:23:52;17.33;;;2.50;;
71965;SDS011;59836;52.132;5.442;2023-11-19T11:31:58;19.02;;;2.85;;
71965;SDS011;59836;52.132;5.442;2023-11-19T11:37:33;16.05;;;2.60;;
71965;SDS011;59836;52.132;5.442;2023-11-19T11:40:05;20.10;;;2.43;;
71965;SDS011;59836;52.132;5.442;2023-11-19T11:42:36;18.70;;;2.17;;
71965;SDS011;59836;52.132;5.442;2023-11-19T11:50:10;19.98;;;2.72;;
71965;SDS011;59836;52.132;5.442;2023-11-19T11:55:34;12.90;;;1.67;;
71965;SDS011;59836;52.132;5.442;2023-11-19T11:58:05;14.75;;;1.70;;
71965;SDS011;59836;52.132;5.442;2023-11-19T12:00:32;16.02;;;2.08;;
71965;SDS011;59836;52.132;5.442;2023-11-19T12:03:04;16.20;;;3.03;;
71965;SDS011;59836;52.132;5.442;2023-11-19T12:05:33;14.37;;;2.10;;
71965;SDS011;59836;52.132;5.442;2023-11-19T12:08:03;17.45;;;2.55;;
71965;SDS011;59836;52.132;5.442;2023-11-19T12:10:36;14.85;;;2.35;;
71965;SDS011;59836;52.132;5.442;2023-11-19T12:13:09;11.82;;;2.42;;
71965;SDS011;59836;52.132;5.442;2023-11-19T12:18:24;16.47;;;2.60;;
71965;SDS011;59836;52.132;5.442;2023-11-19T12:20:54;14.63;;;3.28;;
71965;SDS011;59836;52.132;5.442;2023-11-19T12:23:21;17.35;;;2.72;;
71965;SDS011;59836;52.132;5.442;2023-11-19T12:25:48;16.75;;;2.28;;
71965;SDS011;59836;52.132;5.442;2023-11-19T12:28:15;14.90;;;1.65;;
71965;SDS011;59836;52.132;5.442;2023-11-19T12:30:43;11.87;;;1.73;;
71965;SDS011;59836;52.132;5.442;2023-11-19T12:33:10;18.15;;;2.10;;
71965;SDS011;59836;52.132;5.442;2023-11-19T12:35:41;15.75;;;2.75;;
71965;SDS011;59836;52.132;5.442;2023-11-19T12:38:21;13.65;;;1.98;;
71965;SDS011;59836;52.132;5.442;2023-11-19T12:41:04;13.00;;;1.98;;
71965;SDS011;59836;52.132;5.442;2023-11-19T12:43:37;9.50;;;1.63;;
71965;SDS011;59836;52.132;5.442;2023-11-19T12:46:19;11.48;;;2.22;;
71965;SDS011;59836;52.132;5.442;2023-11-19T12:48:47;12.93;;;2.00;;
71965;SDS011;59836;52.132;5.442;2023-11-19T12:51:15;15.55;;;2.15;;
71965;SDS011;59836;52.132;5.442;2023-11-19T12:53:49;17.63;;;1.98;;
71965;SDS011;59836;52.132;5.442;2023-11-19T12:56:18;19.47;;;2.90;;
71965;SDS011;59836;52.132;5.442;2023-11-19T12:58:45;21.55;;;2.90;;
71965;SDS011;59836;52.132;5.442;2023-11-19T13:01:15;14.68;;;1.98;;
71965;SDS011;59836;52.132;5.442;2023-11-19T13:03:43;14.48;;;2.25;;
71965;SDS011;59836;52.132;5.442;2023-11-19T13:06:10;15.55;;;2.17;;
71965;SDS011;59836;52.132;5.442;2023-11-19T13:08:39;14.87;;;2.27;;
71965;SDS011;59836;52.132;5.442;2023-11-19T13:11:07;12.68;;;1.95;;
71965;SDS011;59836;52.132;5.442;2023-11-19T13:13:53;18.70;;;2.42;;
71965;SDS011;59836;52.132;5.442;2023-11-19T13:16:23;15.48;;;2.22;;
71965;SDS011;59836;52.132;5.442;2023-11-19T13:18:50;14.38;;;1.67;;
71965;SDS011;59836;52.132;5.442;2023-11-19T13:21:17;15.67;;;2.03;;
71965;SDS011;59836;52.132;5.442;2023-11-19T13:23:44;22.48;;;2.35;;
71965;SDS011;59836;52.132;5.442;2023-11-19T13:26:11;14.38;;;2.22;;
71965;SDS011;59836;52.132;5.442;2023-11-19T13:28:38;18.58;;;2.47;;
71965;SDS011;59836;52.132;5.442;2023-11-19T13:31:05;16.80;;;2.33;;
71965;SDS011;59836;52.132;5.442;2023-11-19T13:33:32;10.93;;;2.00;;
71965;SDS011;59836;52.132;5.442;2023-11-19T13:35:58;15.30;;;1.85;;
71965;SDS011;59836;52.132;5.442;2023-11-19T13:38:28;14.07;;;1.88;;
71965;SDS011;59836;52.132;5.442;2023-11-19T13:40:54;18.17;;;2.17;;
71965;SDS011;59836;52.132;5.442;2023-11-19T13:43:20;11.63;;;1.75;;
71965;SDS011;59836;52.132;5.442;2023-11-19T13:45:50;14.63;;;2.53;;
71965;SDS011;59836;52.132;5.442;2023-11-19T13:48:17;16.95;;;2.10;;
71965;SDS011;59836;52.132;5.442;2023-11-19T13:50:43;11.98;;;2.45;;
71965;SDS011;59836;52.132;5.442;2023-11-19T13:53:09;11.70;;;1.75;;
71965;SDS011;59836;52.132;5.442;2023-11-19T13:55:36;16.30;;;2.08;;
71965;SDS011;59836;52.132;5.442;2023-11-19T13:58:02;16.30;;;2.57;;
71965;SDS011;59836;52.132;5.442;2023-11-19T14:00:29;14.00;;;1.90;;
71965;SDS011;59836;52.132;5.442;2023-11-19T14:02:55;17.05;;;2.13;;
71965;SDS011;59836;52.132;5.442;2023-11-19T14:05:22;16.08;;;2.45;;
71965;SDS011;59836;52.132;5.442;2023-11-19T14:07:52;11.70;;;2.05;;
71965;SDS011;59836;52.132;5.442;2023-11-19T14:10:19;18.40;;;2.27;;
71965;SDS011;59836;52.132;5.442;2023-11-19T14:12:46;15.60;;;1.92;;
71965;SDS011;59836;52.132;5.442;2023-11-19T14:15:12;11.70;;;1.83;;
71965;SDS011;59836;52.132;5.442;2023-11-19T14:17:39;12.77;;;1.95;;
71965;SDS011;59836;52.132;5.442;2023-11-19T14:20:06;11.75;;;1.83;;
71965;SDS011;59836;52.132;5.442;2023-11-19T14:22:39;9.67;;;1.97;;
71965;SDS011;59836;52.132;5.442;2023-11-19T14:25:06;10.68;;;1.70;;
71965;SDS011;59836;52.132;5.442;2023-11-19T14:27:36;15.43;;;2.03;;
71965;SDS011;59836;52.132;5.442;2023-11-19T14:30:07;14.57;;;1.92;;
71965;SDS011;59836;52.132;5.442;2023-11-19T14:32:35;9.35;;;1.42;;
71965;SDS011;59836;52.132;5.442;2023-11-19T14:35:01;10.53;;;2.30;;
71965;SDS011;59836;52.132;5.442;2023-11-19T14:37:29;11.77;;;2.60;;
71965;SDS011;59836;52.132;5.442;2023-11-19T14:39:57;16.33;;;2.20;;
71965;SDS011;59836;52.132;5.442;2023-11-19T14:42:24;14.13;;;2.50;;
71965;SDS011;59836;52.132;5.442;2023-11-19T14:44:53;16.95;;;2.45;;
71965;SDS011;59836;52.132;5.442;2023-11-19T14:47:20;19.07;;;2.63;;
71965;SDS011;59836;52.132;5.442;2023-11-19T14:49:47;15.23;;;2.35;;
71965;SDS011;59836;52.132;5.442;2023-11-19T14:52:14;15.73;;;2.47;;
71965;SDS011;59836;52.132;5.442;2023-11-19T14:54:43;15.30;;;2.00;;
71965;SDS011;59836;52.132;5.442;2023-11-19T14:57:10;15.05;;;2.50;;
71965;SDS011;59836;52.132;5.442;2023-11-19T14:59:36;15.60;;;2.27;;
71965;SDS011;59836;52.132;5.442;2023-11-19T15:02:03;15.93;;;2.50;;
71965;SDS011;59836;52.132;5.442;2023-11-19T15:04:30;13.05;;;1.75;;
71965;SDS011;59836;52.132;5.442;2023-11-19T15:06:57;16.77;;;2.50;;
71965;SDS011;59836;52.132;5.442;2023-11-19T15:09:24;11.18;;;1.95;;
71965;SDS011;59836;52.132;5.442;2023-11-19T15:11:54;14.00;;;2.40;;
71965;SDS011;59836;52.132;5.442;2023-11-19T15:14:21;14.48;;;2.47;;
71965;SDS011;59836;52.132;5.442;2023-11-19T15:16:48;17.58;;;2.38;;
71965;SDS011;59836;52.132;5.442;2023-11-19T15:19:17;17.33;;;2.22;;
71965;SDS011;59836;52.132;5.442;2023-11-19T15:21:44;18.52;;;2.95;;
71965;SDS011;59836;52.132;5.442;2023-11-19T15:24:11;18.10;;;3.13;;